sensor_id;sensor_type;location;lat;lon;timestamp;pressure;altitude;pressure_sealevel;temperature;humidity
47524;BME280;33253;42.144;25.884;2023-12-29T00:01:47;101146.25;;;1.51;100.00
47524;BME280;33253;42.144;25.884;2023-12-29T00:04:12;101199.31;;;1.88;100.00
47524;BME280;33253;42.144;25.884;2023-12-29T00:06:38;101206.59;;;1.93;100.00
47524;BME280;33253;42.144;25.884;2023-12-29T00:09:04;101175.25;;;1.74;100.00
47524;BME280;33253;42.144;25.884;2023-12-29T00:11:30;101206.56;;;1.83;100.00
47524;BME280;33253;42.144;25.884;2023-12-29T00:13:55;101216.50;;;1.80;100.00
47524;BME280;33253;42.144;25.884;2023-12-29T00:16:21;101225.19;;;1.82;100.00
47524;BME280;33253;42.144;25.884;2023-12-29T00:18:47;101213.22;;;1.81;100.00
47524;BME280;33253;42.144;25.884;2023-12-29T00:21:12;101207.31;;;1.72;100.00
47524;BME280;33253;42.144;25.884;2023-12-29T00:23:38;101212.69;;;1.75;100.00
47524;BME280;33253;42.144;25.884;2023-12-29T00:26:03;101221.97;;;1.64;100.00
47524;BME280;33253;42.144;25.884;2023-12-29T00:28:29;101211.97;;;1.36;100.00
47524;BME280;33253;42.144;25.884;2023-12-29T00:30:54;101190.16;;;1.19;100.00
47524;BME280;33253;42.144;25.884;2023-12-29T00:33:20;101187.28;;;1.35;100.00
47524;BME280;33253;42.144;25.884;2023-12-29T00:35:45;101214.59;;;1.67;100.00
47524;BME280;33253;42.144;25.884;2023-12-29T00:38:10;101198.81;;;1.71;100.00
47524;BME280;33253;42.144;25.884;2023-12-29T00:40:36;101218.31;;;1.91;100.00
47524;BME280;33253;42.144;25.884;2023-12-29T00:43:01;101211.41;;;1.90;100.00
47524;BME280;33253;42.144;25.884;2023-12-29T00:45:27;101227.84;;;1.94;100.00
47524;BME280;33253;42.144;25.884;2023-12-29T00:47:58;101218.19;;;1.80;100.00
47524;BME280;33253;42.144;25.884;2023-12-29T00:50:25;101206.22;;;1.89;100.00
47524;BME280;33253;42.144;25.884;2023-12-29T00:52:51;101222.41;;;2.00;100.00
47524;BME280;33253;42.144;25.884;2023-12-29T00:55:17;101216.91;;;1.95;100.00
47524;BME280;33253;42.144;25.884;2023-12-29T00:57:42;101218.81;;;1.87;100.00
47524;BME280;33253;42.144;25.884;2023-12-29T01:00:11;101186.09;;;1.61;100.00
47524;BME280;33253;42.144;25.884;2023-12-29T01:02:37;101210.78;;;1.62;100.00
47524;BME280;33253;42.144;25.884;2023-12-29T01:05:03;101212.53;;;1.63;100.00
47524;BME280;33253;42.144;25.884;2023-12-29T01:07:28;101219.56;;;1.76;100.00
47524;BME280;33253;42.144;25.884;2023-12-29T01:09:54;101231.16;;;1.72;100.00
47524;BME280;33253;42.144;25.884;2023-12-29T01:12:19;101220.31;;;1.65;100.00
47524;BME280;33253;42.144;25.884;2023-12-29T01:14:44;101209.00;;;1.71;100.00
47524;BME280;33253;42.144;25.884;2023-12-29T01:17:10;101205.19;;;1.76;100.00
47524;BME280;33253;42.144;25.884;2023-12-29T01:19:35;101202.22;;;1.72;100.00
47524;BME280;33253;42.144;25.884;2023-12-29T01:22:01;101144.44;;;1.40;100.00
47524;BME280;33253;42.144;25.884;2023-12-29T01:24:26;101199.44;;;1.69;100.00
47524;BME280;33253;42.144;25.884;2023-12-29T01:26:52;101174.81;;;1.38;100.00
47524;BME280;33253;42.144;25.884;2023-12-29T01:29:17;101171.00;;;1.33;100.00
47524;BME280;33253;42.144;25.884;2023-12-29T01:31:43;101184.44;;;1.11;100.00
47524;BME280;33253;42.144;25.884;2023-12-29T01:34:08;101180.34;;;0.74;100.00
47524;BME280;33253;42.144;25.884;2023-12-29T01:36:34;101142.41;;;0.37;100.00
47524;BME280;33253;42.144;25.884;2023-12-29T01:38:59;101182.38;;;0.78;100.00
47524;BME280;33253;42.144;25.884;2023-12-29T01:41:25;101178.91;;;0.96;100.00
47524;BME280;33253;42.144;25.884;2023-12-29T01:46:24;101169.81;;;1.09;100.00
47524;BME280;33253;42.144;25.884;2023-12-29T01:48:52;101095.31;;;0.70;100.00
47524;BME280;33253;42.144;25.884;2023-12-29T01:51:18;101108.66;;;0.68;100.00
47524;BME280;33253;42.144;25.884;2023-12-29T01:53:46;101105.00;;;0.45;100.00
47524;BME280;33253;42.144;25.884;2023-12-29T01:56:13;101165.63;;;0.80;100.00
47524;BME280;33253;42.144;25.884;2023-12-29T01:58:39;101156.63;;;0.84;100.00
47524;BME280;33253;42.144;25.884;2023-12-29T02:01:06;101141.00;;;0.89;100.00
47524;BME280;33253;42.144;25.884;2023-12-29T02:03:33;101141.72;;;1.07;100.00
47524;BME280;33253;42.144;25.884;2023-12-29T02:05:58;101150.22;;;1.08;100.00
47524;BME280;33253;42.144;25.884;2023-12-29T02:08:24;101136.53;;;0.87;100.00
47524;BME280;33253;42.144;25.884;2023-12-29T02:10:50;101142.88;;;0.82;100.00
47524;BME280;33253;42.144;25.884;2023-12-29T02:13:16;101146.47;;;0.84;100.00
47524;BME280;33253;42.144;25.884;2023-12-29T02:15:43;101149.78;;;0.93;100.00
47524;BME280;33253;42.144;25.884;2023-12-29T02:18:14;101143.72;;;1.01;100.00
47524;BME280;33253;42.144;25.884;2023-12-29T02:20:42;101075.22;;;0.63;100.00
47524;BME280;33253;42.144;25.884;2023-12-29T02:23:08;101132.16;;;1.05;100.00
47524;BME280;33253;42.144;25.884;2023-12-29T02:25:35;101135.88;;;1.19;100.00
47524;BME280;33253;42.144;25.884;2023-12-29T02:28:13;101132.59;;;1.20;100.00
47524;BME280;33253;42.144;25.884;2023-12-29T02:33:18;101117.94;;;1.17;100.00
47524;BME280;33253;42.144;25.884;2023-12-29T02:36:04;101130.28;;;1.23;100.00
47524;BME280;33253;42.144;25.884;2023-12-29T02:38:30;101126.47;;;1.28;100.00
47524;BME280;33253;42.144;25.884;2023-12-29T02:40:56;101109.69;;;1.30;100.00
47524;BME280;33253;42.144;25.884;2023-12-29T02:43:22;101043.53;;;0.89;100.00
47524;BME280;33253;42.144;25.884;2023-12-29T02:45:47;101118.09;;;1.29;100.00
47524;BME280;33253;42.144;25.884;2023-12-29T02:48:13;101099.63;;;1.11;100.00
47524;BME280;33253;42.144;25.884;2023-12-29T02:50:38;101114.72;;;0.99;100.00
47524;BME280;33253;42.144;25.884;2023-12-29T02:53:04;101124.00;;;0.99;100.00
47524;BME280;33253;42.144;25.884;2023-12-29T02:55:30;101118.41;;;0.92;100.00
47524;BME280;33253;42.144;25.884;2023-12-29T02:57:55;101127.69;;;0.62;100.00
47524;BME280;33253;42.144;25.884;2023-12-29T03:00:21;101132.63;;;0.61;100.00
47524;BME280;33253;42.144;25.884;2023-12-29T03:02:46;101091.72;;;0.58;100.00
47524;BME280;33253;42.144;25.884;2023-12-29T03:05:12;101106.66;;;0.74;100.00
47524;BME280;33253;42.144;25.884;2023-12-29T03:07:37;101085.50;;;0.64;100.00
47524;BME280;33253;42.144;25.884;2023-12-29T03:10:05;101113.41;;;0.84;100.00
47524;BME280;33253;42.144;25.884;2023-12-29T03:12:30;101112.91;;;0.88;100.00
47524;BME280;33253;42.144;25.884;2023-12-29T03:14:56;101117.63;;;0.93;100.00
47524;BME280;33253;42.144;25.884;2023-12-29T03:17:22;101128.06;;;0.96;100.00
47524;BME280;33253;42.144;25.884;2023-12-29T03:19:47;101117.00;;;0.96;100.00
47524;BME280;33253;42.144;25.884;2023-12-29T03:22:12;101126.53;;;0.59;100.00
47524;BME280;33253;42.144;25.884;2023-12-29T03:24:40;101115.78;;;0.23;100.00
47524;BME280;33253;42.144;25.884;2023-12-29T03:27:06;101117.09;;;0.28;100.00
47524;BME280;33253;42.144;25.884;2023-12-29T03:29:32;101112.28;;;0.12;100.00
47524;BME280;33253;42.144;25.884;2023-12-29T03:31:57;101017.91;;;-0.79;100.00
47524;BME280;33253;42.144;25.884;2023-12-29T03:34:23;101091.25;;;-0.72;100.00
47524;BME280;33253;42.144;25.884;2023-12-29T03:36:48;101105.28;;;-0.75;100.00
47524;BME280;33253;42.144;25.884;2023-12-29T03:39:14;101110.44;;;-0.65;100.00
47524;BME280;33253;42.144;25.884;2023-12-29T03:41:39;101083.22;;;-0.48;100.00
47524;BME280;33253;42.144;25.884;2023-12-29T03:44:05;101101.53;;;-0.23;100.00
47524;BME280;33253;42.144;25.884;2023-12-29T03:46:31;101098.44;;;-0.10;100.00
47524;BME280;33253;42.144;25.884;2023-12-29T03:48:58;101102.69;;;-0.01;100.00
47524;BME280;33253;42.144;25.884;2023-12-29T03:51:24;101105.72;;;0.14;100.00
47524;BME280;33253;42.144;25.884;2023-12-29T03:53:50;101103.75;;;0.31;100.00
47524;BME280;33253;42.144;25.884;2023-12-29T03:56:17;101100.59;;;0.34;100.00
47524;BME280;33253;42.144;25.884;2023-12-29T03:58:47;101112.00;;;0.28;100.00
47524;BME280;33253;42.144;25.884;2023-12-29T04:01:16;101114.56;;;0.28;100.00
47524;BME280;33253;42.144;25.884;2023-12-29T04:03:42;101121.28;;;0.28;100.00
47524;BME280;33253;42.144;25.884;2023-12-29T04:06:08;101118.75;;;0.28;100.00
47524;BME280;33253;42.144;25.884;2023-12-29T04:08:34;101122.16;;;0.28;100.00
47524;BME280;33253;42.144;25.884;2023-12-29T04:11:00;101095.97;;;0.19;100.00
47524;BME280;33253;42.144;25.884;2023-12-29T04:13:26;101106.81;;;0.27;100.00
47524;BME280;33253;42.144;25.884;2023-12-29T04:15:51;101129.31;;;0.32;100.00
47524;BME280;33253;42.144;25.884;2023-12-29T04:18:18;101111.47;;;0.22;100.00
47524;BME280;33253;42.144;25.884;2023-12-29T04:20:43;101118.25;;;0.32;100.00
47524;BME280;33253;42.144;25.884;2023-12-29T04:23:09;101046.59;;;-0.04;100.00
47524;BME280;33253;42.144;25.884;2023-12-29T04:25:34;101104.56;;;0.30;100.00
47524;BME280;33253;42.144;25.884;2023-12-29T04:28:00;101036.56;;;-0.02;100.00
47524;BME280;33253;42.144;25.884;2023-12-29T04:30:25;101092.66;;;0.39;100.00
47524;BME280;33253;42.144;25.884;2023-12-29T04:32:51;101116.66;;;0.43;100.00
47524;BME280;33253;42.144;25.884;2023-12-29T04:35:17;101111.47;;;0.41;100.00
47524;BME280;33253;42.144;25.884;2023-12-29T04:37:44;101091.97;;;0.31;100.00
47524;BME280;33253;42.144;25.884;2023-12-29T04:40:14;101107.53;;;0.45;100.00
47524;BME280;33253;42.144;25.884;2023-12-29T04:42:40;101100.38;;;0.41;100.00
47524;BME280;33253;42.144;25.884;2023-12-29T04:45:06;101100.06;;;0.27;100.00
47524;BME280;33253;42.144;25.884;2023-12-29T04:47:32;101092.41;;;0.17;100.00
47524;BME280;33253;42.144;25.884;2023-12-29T04:50:00;101006.97;;;-0.31;100.00
47524;BME280;33253;42.144;25.884;2023-12-29T04:52:26;101106.38;;;0.22;100.00
47524;BME280;33253;42.144;25.884;2023-12-29T04:54:51;101083.41;;;0.21;100.00
47524;BME280;33253;42.144;25.884;2023-12-29T04:57:19;101076.41;;;0.18;100.00
47524;BME280;33253;42.144;25.884;2023-12-29T04:59:46;101091.44;;;0.25;100.00
47524;BME280;33253;42.144;25.884;2023-12-29T05:02:11;101071.22;;;0.17;100.00
47524;BME280;33253;42.144;25.884;2023-12-29T05:04:37;101083.81;;;0.25;100.00
47524;BME280;33253;42.144;25.884;2023-12-29T05:07:05;101072.03;;;0.07;100.00
47524;BME280;33253;42.144;25.884;2023-12-29T05:09:31;101078.81;;;-0.03;100.00
47524;BME280;33253;42.144;25.884;2023-12-29T05:11:56;101026.84;;;-0.36;100.00
47524;BME280;33253;42.144;25.884;2023-12-29T05:14:22;101098.38;;;-0.02;100.00
47524;BME280;33253;42.144;25.884;2023-12-29T05:16:47;101096.47;;;-0.04;100.00
47524;BME280;33253;42.144;25.884;2023-12-29T05:19:13;101092.75;;;-0.08;100.00
47524;BME280;33253;42.144;25.884;2023-12-29T05:21:39;101091.38;;;-0.04;100.00
47524;BME280;33253;42.144;25.884;2023-12-29T05:24:05;101092.84;;;0.03;100.00
47524;BME280;33253;42.144;25.884;2023-12-29T05:26:31;101044.59;;;-0.17;100.00
47524;BME280;33253;42.144;25.884;2023-12-29T05:28:57;101094.47;;;0.02;100.00
47524;BME280;33253;42.144;25.884;2023-12-29T05:31:22;101101.97;;;-0.19;100.00
47524;BME280;33253;42.144;25.884;2023-12-29T05:33:48;101098.69;;;-0.45;100.00
47524;BME280;33253;42.144;25.884;2023-12-29T05:36:13;101099.31;;;-0.48;100.00
47524;BME280;33253;42.144;25.884;2023-12-29T05:38:39;101100.00;;;-0.40;100.00
47524;BME280;33253;42.144;25.884;2023-12-29T05:41:06;101088.34;;;-0.38;100.00
47524;BME280;33253;42.144;25.884;2023-12-29T05:43:32;101076.75;;;-0.45;100.00
47524;BME280;33253;42.144;25.884;2023-12-29T05:45:59;101022.88;;;-0.89;100.00
47524;BME280;33253;42.144;25.884;2023-12-29T05:48:25;101108.84;;;-0.45;100.00
47524;BME280;33253;42.144;25.884;2023-12-29T05:50:51;101103.28;;;-0.41;100.00
47524;BME280;33253;42.144;25.884;2023-12-29T05:53:18;101096.28;;;-0.44;100.00
47524;BME280;33253;42.144;25.884;2023-12-29T05:55:44;101013.13;;;-0.76;100.00
47524;BME280;33253;42.144;25.884;2023-12-29T05:58:10;101104.00;;;-0.14;100.00
47524;BME280;33253;42.144;25.884;2023-12-29T06:00:38;101098.53;;;0.00;100.00
47524;BME280;33253;42.144;25.884;2023-12-29T06:03:05;101108.44;;;0.07;100.00
47524;BME280;33253;42.144;25.884;2023-12-29T06:05:31;101113.06;;;0.11;100.00
47524;BME280;33253;42.144;25.884;2023-12-29T06:07:57;101109.28;;;0.17;100.00
47524;BME280;33253;42.144;25.884;2023-12-29T06:10:22;101113.00;;;0.20;100.00
47524;BME280;33253;42.144;25.884;2023-12-29T06:12:48;101108.47;;;0.26;100.00
47524;BME280;33253;42.144;25.884;2023-12-29T06:15:13;101123.28;;;0.22;100.00
47524;BME280;33253;42.144;25.884;2023-12-29T06:17:42;101123.44;;;0.04;100.00
47524;BME280;33253;42.144;25.884;2023-12-29T06:20:09;101124.25;;;-0.06;100.00
47524;BME280;33253;42.144;25.884;2023-12-29T06:22:39;101105.78;;;-0.13;100.00
47524;BME280;33253;42.144;25.884;2023-12-29T06:25:09;101123.13;;;0.01;100.00
47524;BME280;33253;42.144;25.884;2023-12-29T06:27:36;101120.19;;;0.15;100.00
47524;BME280;33253;42.144;25.884;2023-12-29T06:30:06;101042.13;;;-0.25;100.00
47524;BME280;33253;42.144;25.884;2023-12-29T06:32:32;101125.88;;;0.32;100.00
47524;BME280;33253;42.144;25.884;2023-12-29T06:34:57;101119.22;;;0.43;100.00
47524;BME280;33253;42.144;25.884;2023-12-29T06:37:23;101124.53;;;0.46;100.00
47524;BME280;33253;42.144;25.884;2023-12-29T06:39:48;101105.97;;;0.37;100.00
47524;BME280;33253;42.144;25.884;2023-12-29T06:42:14;101117.00;;;0.37;100.00
47524;BME280;33253;42.144;25.884;2023-12-29T06:44:39;101118.25;;;0.32;100.00
47524;BME280;33253;42.144;25.884;2023-12-29T06:47:06;101111.94;;;0.37;100.00
47524;BME280;33253;42.144;25.884;2023-12-29T06:49:34;101106.91;;;0.47;100.00
47524;BME280;33253;42.144;25.884;2023-12-29T06:52:01;101097.41;;;0.55;100.00
47524;BME280;33253;42.144;25.884;2023-12-29T06:54:27;101096.41;;;0.63;100.00
47524;BME280;33253;42.144;25.884;2023-12-29T06:56:54;101005.19;;;0.17;100.00
47524;BME280;33253;42.144;25.884;2023-12-29T06:59:20;101089.94;;;0.57;100.00
47524;BME280;33253;42.144;25.884;2023-12-29T07:01:46;101092.88;;;0.61;100.00
47524;BME280;33253;42.144;25.884;2023-12-29T07:04:12;101103.94;;;0.72;100.00
47524;BME280;33253;42.144;25.884;2023-12-29T07:06:38;101093.03;;;0.73;100.00
47524;BME280;33253;42.144;25.884;2023-12-29T07:09:03;101107.53;;;0.74;100.00
47524;BME280;33253;42.144;25.884;2023-12-29T07:11:29;101107.00;;;0.78;100.00
47524;BME280;33253;42.144;25.884;2023-12-29T07:13:55;101115.44;;;0.88;100.00
47524;BME280;33253;42.144;25.884;2023-12-29T07:16:20;101104.44;;;0.98;100.00
47524;BME280;33253;42.144;25.884;2023-12-29T07:18:48;101095.03;;;1.07;100.00
47524;BME280;33253;42.144;25.884;2023-12-29T07:21:14;101108.03;;;1.20;100.00
47524;BME280;33253;42.144;25.884;2023-12-29T07:23:40;101109.44;;;1.27;100.00
47524;BME280;33253;42.144;25.884;2023-12-29T07:26:06;101105.72;;;1.03;100.00
47524;BME280;33253;42.144;25.884;2023-12-29T07:28:32;101104.00;;;0.83;100.00
47524;BME280;33253;42.144;25.884;2023-12-29T07:30:57;101102.25;;;0.92;100.00
47524;BME280;33253;42.144;25.884;2023-12-29T07:33:23;101111.31;;;1.09;100.00
47524;BME280;33253;42.144;25.884;2023-12-29T07:35:49;101112.59;;;1.24;100.00
47524;BME280;33253;42.144;25.884;2023-12-29T07:38:15;101121.16;;;1.35;100.00
47524;BME280;33253;42.144;25.884;2023-12-29T07:40:41;101113.28;;;1.53;100.00
47524;BME280;33253;42.144;25.884;2023-12-29T07:43:06;101098.13;;;1.54;100.00
47524;BME280;33253;42.144;25.884;2023-12-29T07:45:32;101115.84;;;1.73;100.00
47524;BME280;33253;42.144;25.884;2023-12-29T07:47:57;101118.88;;;1.80;100.00
47524;BME280;33253;42.144;25.884;2023-12-29T07:50:23;101109.56;;;1.90;100.00
47524;BME280;33253;42.144;25.884;2023-12-29T07:52:49;101062.72;;;1.78;100.00
47524;BME280;33253;42.144;25.884;2023-12-29T07:55:14;101108.66;;;2.21;100.00
47524;BME280;33253;42.144;25.884;2023-12-29T07:57:42;101114.97;;;2.36;100.00
47524;BME280;33253;42.144;25.884;2023-12-29T08:00:09;101114.75;;;2.55;100.00
47524;BME280;33253;42.144;25.884;2023-12-29T08:02:34;101102.59;;;2.41;100.00
47524;BME280;33253;42.144;25.884;2023-12-29T08:05:01;101084.25;;;2.35;100.00
47524;BME280;33253;42.144;25.884;2023-12-29T08:07:27;101111.72;;;2.59;100.00
47524;BME280;33253;42.144;25.884;2023-12-29T08:10:12;101108.66;;;2.86;100.00
47524;BME280;33253;42.144;25.884;2023-12-29T08:12:37;101115.09;;;3.03;100.00
47524;BME280;33253;42.144;25.884;2023-12-29T08:15:03;100986.38;;;2.43;100.00
47524;BME280;33253;42.144;25.884;2023-12-29T08:17:30;101095.72;;;3.17;100.00
47524;BME280;33253;42.144;25.884;2023-12-29T08:19:56;101117.31;;;3.32;100.00
47524;BME280;33253;42.144;25.884;2023-12-29T08:22:21;101120.88;;;3.34;100.00
47524;BME280;33253;42.144;25.884;2023-12-29T08:24:47;101058.22;;;3.16;100.00
47524;BME280;33253;42.144;25.884;2023-12-29T08:27:13;101127.00;;;3.70;100.00
47524;BME280;33253;42.144;25.884;2023-12-29T08:29:39;101114.00;;;3.79;100.00
47524;BME280;33253;42.144;25.884;2023-12-29T08:32:07;101120.28;;;4.07;100.00
47524;BME280;33253;42.144;25.884;2023-12-29T08:34:33;101113.50;;;4.19;100.00
47524;BME280;33253;42.144;25.884;2023-12-29T08:37:03;101034.53;;;3.86;100.00
47524;BME280;33253;42.144;25.884;2023-12-29T08:39:31;101100.19;;;4.35;100.00
47524;BME280;33253;42.144;25.884;2023-12-29T08:41:56;101107.06;;;4.48;100.00
47524;BME280;33253;42.144;25.884;2023-12-29T08:44:22;101108.13;;;4.63;100.00
47524;BME280;33253;42.144;25.884;2023-12-29T08:46:47;101107.56;;;4.79;100.00
47524;BME280;33253;42.144;25.884;2023-12-29T08:49:13;101099.63;;;4.88;100.00
47524;BME280;33253;42.144;25.884;2023-12-29T08:51:39;101098.72;;;4.99;100.00
47524;BME280;33253;42.144;25.884;2023-12-29T08:54:05;101097.75;;;4.97;100.00
47524;BME280;33253;42.144;25.884;2023-12-29T08:56:31;101092.56;;;5.09;100.00
47524;BME280;33253;42.144;25.884;2023-12-29T08:58:56;101084.22;;;5.12;100.00
47524;BME280;33253;42.144;25.884;2023-12-29T09:01:23;101092.53;;;5.21;100.00
47524;BME280;33253;42.144;25.884;2023-12-29T09:03:49;101064.38;;;5.21;100.00
47524;BME280;33253;42.144;25.884;2023-12-29T09:06:14;101076.47;;;5.49;100.00
47524;BME280;33253;42.144;25.884;2023-12-29T09:08:40;101017.06;;;5.41;100.00
47524;BME280;33253;42.144;25.884;2023-12-29T09:11:06;101068.84;;;5.89;100.00
47524;BME280;33253;42.144;25.884;2023-12-29T09:13:31;101059.81;;;5.94;100.00
47524;BME280;33253;42.144;25.884;2023-12-29T09:15:58;100989.63;;;5.65;100.00
47524;BME280;33253;42.144;25.884;2023-12-29T09:18:24;101059.38;;;6.27;100.00
47524;BME280;33253;42.144;25.884;2023-12-29T09:20:50;101043.84;;;6.39;100.00
47524;BME280;33253;42.144;25.884;2023-12-29T09:23:15;101053.31;;;6.53;100.00
47524;BME280;33253;42.144;25.884;2023-12-29T09:25:41;101053.66;;;6.73;100.00
47524;BME280;33253;42.144;25.884;2023-12-29T09:28:07;100991.63;;;6.52;100.00
47524;BME280;33253;42.144;25.884;2023-12-29T09:30:32;101055.91;;;7.10;100.00
47524;BME280;33253;42.144;25.884;2023-12-29T09:32:58;101033.78;;;7.12;100.00
47524;BME280;33253;42.144;25.884;2023-12-29T09:35:23;101049.50;;;7.32;100.00
47524;BME280;33253;42.144;25.884;2023-12-29T09:37:49;101040.41;;;7.52;100.00
47524;BME280;33253;42.144;25.884;2023-12-29T09:40:15;101015.94;;;7.58;100.00
47524;BME280;33253;42.144;25.884;2023-12-29T09:42:43;101031.41;;;7.90;100.00
47524;BME280;33253;42.144;25.884;2023-12-29T09:45:11;101029.31;;;7.98;100.00
47524;BME280;33253;42.144;25.884;2023-12-29T09:47:42;101022.00;;;8.05;100.00
47524;BME280;33253;42.144;25.884;2023-12-29T09:50:12;101017.19;;;8.26;100.00
47524;BME280;33253;42.144;25.884;2023-12-29T09:52:40;100995.09;;;8.30;100.00
47524;BME280;33253;42.144;25.884;2023-12-29T09:55:09;101009.47;;;8.58;100.00
47524;BME280;33253;42.144;25.884;2023-12-29T09:57:36;101005.94;;;8.72;100.00
47524;BME280;33253;42.144;25.884;2023-12-29T10:00:02;101013.03;;;8.77;100.00
47524;BME280;33253;42.144;25.884;2023-12-29T10:02:28;101005.59;;;8.99;100.00
47524;BME280;33253;42.144;25.884;2023-12-29T10:04:54;100945.00;;;8.89;100.00
47524;BME280;33253;42.144;25.884;2023-12-29T10:07:26;100994.78;;;9.39;100.00
47524;BME280;33253;42.144;25.884;2023-12-29T10:09:57;100996.09;;;9.49;100.00
47524;BME280;33253;42.144;25.884;2023-12-29T10:12:44;100987.19;;;9.61;100.00
47524;BME280;33253;42.144;25.884;2023-12-29T10:17:57;100864.75;;;9.15;99.74
47524;BME280;33253;42.144;25.884;2023-12-29T10:20:56;100978.25;;;9.88;99.77
47524;BME280;33253;42.144;25.884;2023-12-29T10:23:41;100966.59;;;9.97;98.74
47524;BME280;33253;42.144;25.884;2023-12-29T10:26:11;100970.34;;;10.03;97.80
47524;BME280;33253;42.144;25.884;2023-12-29T10:28:37;100957.00;;;9.94;98.10
47524;BME280;33253;42.144;25.884;2023-12-29T10:31:04;100969.84;;;10.11;98.42
47524;BME280;33253;42.144;25.884;2023-12-29T10:33:29;100962.50;;;10.20;97.91
47524;BME280;33253;42.144;25.884;2023-12-29T10:36:01;100963.25;;;10.17;98.45
47524;BME280;33253;42.144;25.884;2023-12-29T10:38:32;100914.56;;;9.87;98.25
47524;BME280;33253;42.144;25.884;2023-12-29T10:41:17;100959.06;;;10.19;98.97
47524;BME280;33253;42.144;25.884;2023-12-29T10:43:47;100942.22;;;10.28;99.39
47524;BME280;33253;42.144;25.884;2023-12-29T10:46:12;100930.00;;;10.24;100.00
47524;BME280;33253;42.144;25.884;2023-12-29T10:48:38;100943.78;;;10.42;100.00
47524;BME280;33253;42.144;25.884;2023-12-29T10:51:06;100946.16;;;10.57;100.00
47524;BME280;33253;42.144;25.884;2023-12-29T10:53:34;100932.63;;;10.63;100.00
47524;BME280;33253;42.144;25.884;2023-12-29T10:55:59;100905.94;;;10.62;99.87
47524;BME280;33253;42.144;25.884;2023-12-29T10:58:29;100859.56;;;10.44;100.00
47524;BME280;33253;42.144;25.884;2023-12-29T11:00:56;100902.78;;;10.89;99.44
47524;BME280;33253;42.144;25.884;2023-12-29T11:03:21;100924.97;;;11.05;100.00
47524;BME280;33253;42.144;25.884;2023-12-29T11:05:47;100918.41;;;11.13;100.00
47524;BME280;33253;42.144;25.884;2023-12-29T11:08:20;100902.31;;;11.19;100.00
47524;BME280;33253;42.144;25.884;2023-12-29T11:10:48;100898.97;;;11.22;99.74
47524;BME280;33253;42.144;25.884;2023-12-29T11:13:14;100885.09;;;11.20;100.00
47524;BME280;33253;42.144;25.884;2023-12-29T11:15:43;100892.72;;;11.38;100.00
47524;BME280;33253;42.144;25.884;2023-12-29T11:18:12;100888.78;;;11.47;100.00
47524;BME280;33253;42.144;25.884;2023-12-29T11:20:38;100888.25;;;11.56;99.96
47524;BME280;33253;42.144;25.884;2023-12-29T11:23:06;100886.00;;;11.64;98.71
47524;BME280;33253;42.144;25.884;2023-12-29T11:25:33;100865.16;;;11.61;98.82
47524;BME280;33253;42.144;25.884;2023-12-29T11:27:59;100879.63;;;11.78;98.00
47524;BME280;33253;42.144;25.884;2023-12-29T11:30:25;100826.19;;;11.56;97.26
47524;BME280;33253;42.144;25.884;2023-12-29T11:33:01;100887.41;;;11.78;97.58
47524;BME280;33253;42.144;25.884;2023-12-29T11:40:38;100855.31;;;11.73;97.47
47524;BME280;33253;42.144;25.884;2023-12-29T11:43:18;100868.91;;;11.90;98.29
47524;BME280;33253;42.144;25.884;2023-12-29T11:45:43;100868.06;;;11.91;97.73
47524;BME280;33253;42.144;25.884;2023-12-29T11:48:10;100753.56;;;11.27;97.33
47524;BME280;33253;42.144;25.884;2023-12-29T11:50:39;100803.09;;;11.61;96.81
47524;BME280;33253;42.144;25.884;2023-12-29T11:53:08;100864.13;;;12.01;96.53
47524;BME280;33253;42.144;25.884;2023-12-29T11:55:38;100859.91;;;12.03;96.43
47524;BME280;33253;42.144;25.884;2023-12-29T11:58:23;100824.00;;;11.90;95.89
47524;BME280;33253;42.144;25.884;2023-12-29T12:00:49;100801.16;;;11.78;94.41
47524;BME280;33253;42.144;25.884;2023-12-29T12:05:50;100862.09;;;12.15;93.84
47524;BME280;33253;42.144;25.884;2023-12-29T12:08:35;100850.19;;;12.20;94.00
47524;BME280;33253;42.144;25.884;2023-12-29T12:13:59;100825.06;;;11.95;94.32
47524;BME280;33253;42.144;25.884;2023-12-29T12:16:47;100849.13;;;12.15;94.14
47524;BME280;33253;42.144;25.884;2023-12-29T12:19:13;100856.00;;;12.14;93.05
47524;BME280;33253;42.144;25.884;2023-12-29T12:21:39;100858.59;;;12.14;93.34
47524;BME280;33253;42.144;25.884;2023-12-29T12:24:06;100846.59;;;12.17;93.77
47524;BME280;33253;42.144;25.884;2023-12-29T12:26:31;100853.09;;;12.05;93.00
47524;BME280;33253;42.144;25.884;2023-12-29T12:28:58;100798.56;;;11.78;93.05
47524;BME280;33253;42.144;25.884;2023-12-29T12:31:24;100840.28;;;12.10;92.71
47524;BME280;33253;42.144;25.884;2023-12-29T12:34:15;100851.56;;;12.10;93.45
47524;BME280;33253;42.144;25.884;2023-12-29T12:36:48;100835.19;;;12.11;92.85
47524;BME280;33253;42.144;25.884;2023-12-29T12:39:15;100832.53;;;12.10;93.36
47524;BME280;33253;42.144;25.884;2023-12-29T12:41:41;100840.69;;;12.21;92.74
47524;BME280;33253;42.144;25.884;2023-12-29T12:46:35;100765.81;;;11.78;92.70
47524;BME280;33253;42.144;25.884;2023-12-29T12:49:02;100833.16;;;12.27;92.92
47524;BME280;33253;42.144;25.884;2023-12-29T12:51:29;100841.97;;;12.32;92.81
47524;BME280;33253;42.144;25.884;2023-12-29T12:53:56;100823.69;;;12.27;92.60
47524;BME280;33253;42.144;25.884;2023-12-29T12:56:22;100816.50;;;12.19;92.73
47524;BME280;33253;42.144;25.884;2023-12-29T12:58:47;100819.94;;;12.19;93.18